createdAt,value
2019-03-25T00:02:33.731Z,8.90
2019-03-25T00:05:22.161Z,8.80
2019-03-25T00:08:02.713Z,8.80
2019-03-25T00:10:43.806Z,8.90
2019-03-25T00:13:24.957Z,8.90
2019-03-25T00:16:05.733Z,8.80
2019-03-25T00:18:47.166Z,8.80
2019-03-25T00:21:16.731Z,8.70
2019-03-25T00:24:05.165Z,8.60
2019-03-25T00:26:46.189Z,8.60
2019-03-25T00:29:27.040Z,8.50
2019-03-25T00:32:07.618Z,8.40
2019-03-25T00:34:48.364Z,8.40
2019-03-25T00:37:29.677Z,8.40
2019-03-25T00:40:10.732Z,8.50
2019-03-25T00:42:51.580Z,8.50
2019-03-25T00:45:21.100Z,8.40
2019-03-25T00:48:09.513Z,8.20
2019-03-25T00:50:50.398Z,8.10
2019-03-25T00:53:31.054Z,8.10
2019-03-25T00:56:11.837Z,8.10
2019-03-25T00:58:41.268Z,8.10
2019-03-25T01:01:29.676Z,8.10
2019-03-25T01:04:18.112Z,8.00
2019-03-25T01:06:59.243Z,8.10
2019-03-25T01:09:28.722Z,8.10
2019-03-25T01:12:17.125Z,8.10
2019-03-25T01:15:05.772Z,8.00
2019-03-25T01:17:46.142Z,7.90
2019-03-25T01:20:27.423Z,7.90
2019-03-25T01:23:08.347Z,7.90
2019-03-25T01:25:49.349Z,7.70
2019-03-25T01:28:30.141Z,7.70
2019-03-25T01:31:10.844Z,7.70
2019-03-25T01:33:51.512Z,7.70
2019-03-25T01:36:32.492Z,7.70
2019-03-25T01:39:13.583Z,7.60
2019-03-25T01:41:54.236Z,7.60
2019-03-25T01:44:35.117Z,7.50
2019-03-25T01:47:15.948Z,7.50
2019-03-25T01:49:56.724Z,7.50
2019-03-25T01:52:37.652Z,7.50
2019-03-25T01:55:18.321Z,7.50
2019-03-25T01:57:59.130Z,7.50
2019-03-25T02:00:40.166Z,7.40
2019-03-25T02:03:20.870Z,7.40
2019-03-25T02:06:01.832Z,7.40
2019-03-25T02:08:42.508Z,7.40
2019-03-25T02:11:23.243Z,7.40
2019-03-25T02:14:04.477Z,7.30
2019-03-25T02:16:45.447Z,7.30
2019-03-25T02:19:26.686Z,7.30
2019-03-25T02:22:07.402Z,7.20
2019-03-25T02:24:48.422Z,7.20
2019-03-25T02:27:28.881Z,7.30
2019-03-25T02:30:09.652Z,7.30
2019-03-25T02:32:50.362Z,7.20
2019-03-25T02:35:31.565Z,7.10
2019-03-25T02:38:12.425Z,7.00
2019-03-25T02:40:53.277Z,7.00
2019-03-25T02:43:34.040Z,7.00
2019-03-25T02:46:15.345Z,6.90
2019-03-25T02:48:56.160Z,6.90
2019-03-25T02:51:36.887Z,6.80
2019-03-25T02:54:18.460Z,6.70
2019-03-25T02:56:59.369Z,6.70
2019-03-25T02:59:40.393Z,6.70
2019-03-25T03:02:21.637Z,6.60
2019-03-25T03:05:02.576Z,6.60
2019-03-25T03:07:43.273Z,6.60
2019-03-25T03:10:24.151Z,6.70
2019-03-25T03:13:04.623Z,6.80
2019-03-25T03:15:45.304Z,6.80
2019-03-25T03:18:26.117Z,6.80
2019-03-25T03:21:06.833Z,6.70
2019-03-25T03:23:47.529Z,6.80
2019-03-25T03:26:28.245Z,6.70
2019-03-25T03:29:09.117Z,6.70
2019-03-25T03:31:49.877Z,6.80
2019-03-25T03:34:30.853Z,6.70
2019-03-25T03:37:11.604Z,6.70
2019-03-25T03:39:52.255Z,6.70
2019-03-25T03:42:32.994Z,6.70
2019-03-25T03:45:14.150Z,6.60
2019-03-25T03:47:54.838Z,6.60
2019-03-25T03:50:35.369Z,6.70
2019-03-25T03:53:16.111Z,6.70
2019-03-25T03:56:11.546Z,6.70
2019-03-25T03:58:39.682Z,6.80
2019-03-25T04:01:20.368Z,6.80
2019-03-25T04:04:01.239Z,6.90
2019-03-25T04:06:42.128Z,7.00
2019-03-25T04:09:22.909Z,7.00
2019-03-25T04:12:03.712Z,7.00
2019-03-25T04:14:44.227Z,7.00
2019-03-25T04:17:24.945Z,7.10
2019-03-25T04:20:05.932Z,7.10
2019-03-25T04:22:46.528Z,7.10
2019-03-25T04:25:27.257Z,7.20
2019-03-25T04:28:08.404Z,7.20
2019-03-25T04:30:49.266Z,7.20
2019-03-25T04:33:30.237Z,7.20
2019-03-25T04:36:11.925Z,7.10
2019-03-25T04:38:54.100Z,7.20
2019-03-25T04:41:35.297Z,7.20
2019-03-25T04:44:15.668Z,7.20
2019-03-25T04:46:56.504Z,7.20
2019-03-25T04:49:26.012Z,7.20
2019-03-25T04:52:14.428Z,7.20
2019-03-25T04:55:02.860Z,7.20
2019-03-25T04:57:44.084Z,7.20
2019-03-25T05:00:24.885Z,7.30
2019-03-25T05:03:05.663Z,7.40
2019-03-25T05:05:46.377Z,7.40
2019-03-25T05:08:27.185Z,7.50
2019-03-25T05:11:08.426Z,7.40
2019-03-25T05:13:49.345Z,7.40
2019-03-25T05:16:30.019Z,7.40
2019-03-25T05:19:10.844Z,7.40
2019-03-25T05:21:51.657Z,7.50
2019-03-25T05:24:32.456Z,7.50
2019-03-25T05:27:13.181Z,7.60
2019-03-25T05:29:53.817Z,7.60
2019-03-25T05:32:35.009Z,7.60
2019-03-25T05:35:15.414Z,7.70
2019-03-25T05:37:56.141Z,7.80
2019-03-25T05:40:36.827Z,7.80
2019-03-25T05:43:17.744Z,7.90
2019-03-25T05:45:58.383Z,8.00
2019-03-25T05:48:38.944Z,8.00
2019-03-25T05:51:19.860Z,7.90
2019-03-25T05:54:00.718Z,7.90
2019-03-25T05:56:41.495Z,7.80
2019-03-25T05:59:22.332Z,7.80
2019-03-25T06:02:03.684Z,7.70
2019-03-25T06:04:44.490Z,7.80
2019-03-25T06:07:25.304Z,7.80
2019-03-25T06:10:06.198Z,7.80
2019-03-25T06:12:47.029Z,7.90
2019-03-25T06:15:27.576Z,7.90
2019-03-25T06:18:08.292Z,7.80
2019-03-25T06:26:07.633Z,8.00
2019-03-25T06:28:48.480Z,7.90
2019-03-25T06:31:29.369Z,7.90
2019-03-25T06:34:10.477Z,8.00
2019-03-25T06:36:51.329Z,8.00
2019-03-25T06:39:32.229Z,8.10
2019-03-25T06:42:12.609Z,8.20
2019-03-25T06:44:53.913Z,8.30
2019-03-25T06:47:35.083Z,8.30
2019-03-25T06:50:15.987Z,8.40
2019-03-25T06:52:56.758Z,8.40
2019-03-25T06:55:37.290Z,8.40
2019-03-25T06:58:06.894Z,8.40
2019-03-25T07:00:55.317Z,8.40
2019-03-25T07:03:43.744Z,8.40
2019-03-25T07:06:24.168Z,8.40
2019-03-25T07:09:05.085Z,8.50
2019-03-25T07:11:46.218Z,8.50
2019-03-25T07:14:26.885Z,8.50
2019-03-25T07:17:07.595Z,8.50
2019-03-25T07:19:48.388Z,8.60
2019-03-25T07:22:29.104Z,8.60
2019-03-25T07:25:10.836Z,8.60
2019-03-25T07:27:51.843Z,8.70
2019-03-25T07:30:32.693Z,8.70
2019-03-25T07:33:13.519Z,8.70
2019-03-25T07:35:54.282Z,8.70
2019-03-25T07:38:35.386Z,8.70
2019-03-25T07:41:17.170Z,8.70
2019-03-25T07:43:58.431Z,8.70
2019-03-25T07:46:39.061Z,8.80
2019-03-25T07:49:19.980Z,8.80
2019-03-25T07:52:00.654Z,9.00
2019-03-25T07:54:41.486Z,9.10
2019-03-25T07:57:22.618Z,9.20
2019-03-25T08:00:13.127Z,9.30
2019-03-25T08:02:45.977Z,9.40
2019-03-25T08:05:26.811Z,9.40
2019-03-25T08:07:56.428Z,9.50
2019-03-25T08:10:44.831Z,9.60
2019-03-25T08:13:26.222Z,9.70
2019-03-25T08:16:07.399Z,9.80
2019-03-25T08:18:48.155Z,9.90
2019-03-25T08:21:28.937Z,10.00
2019-03-25T08:24:10.197Z,10.10
2019-03-25T08:26:50.728Z,10.20
2019-03-25T08:29:31.156Z,10.20
2019-03-25T08:32:11.665Z,10.20
2019-03-25T08:34:52.434Z,10.20
2019-03-25T08:37:33.335Z,10.20
2019-03-25T08:40:14.165Z,10.30
2019-03-25T08:42:55.080Z,10.30
2019-03-25T08:45:36.166Z,10.30
2019-03-25T08:48:17.386Z,10.30
2019-03-25T08:50:58.696Z,10.40
2019-03-25T08:53:39.257Z,10.50
2019-03-25T08:56:20.051Z,10.50
2019-03-25T08:59:00.832Z,10.60
2019-03-25T09:01:42.106Z,10.60
2019-03-25T09:04:22.891Z,10.60
2019-03-25T09:07:03.599Z,10.50
2019-03-25T09:09:44.739Z,10.40
2019-03-25T09:12:25.484Z,10.40
2019-03-25T09:14:54.920Z,10.30
2019-03-25T09:17:43.420Z,10.40
2019-03-25T09:20:24.205Z,10.40
2019-03-25T09:23:04.690Z,10.30
2019-03-25T09:25:45.241Z,10.30
2019-03-25T09:28:25.845Z,10.20
2019-03-25T09:31:06.651Z,10.30
2019-03-25T09:33:47.307Z,10.40
2019-03-25T09:36:28.384Z,10.60
2019-03-25T09:39:09.237Z,10.60
2019-03-25T09:41:50.321Z,10.50
2019-03-25T09:44:31.203Z,10.50
2019-03-25T09:47:11.914Z,10.50
2019-03-25T09:49:52.596Z,10.40
2019-03-25T09:52:38.406Z,10.40
2019-03-25T09:55:16.754Z,10.40
2019-03-25T09:57:57.428Z,10.40
2019-03-25T10:00:38.077Z,10.40
2019-03-25T10:03:18.885Z,10.20
2019-03-25T10:06:00.033Z,10.10
2019-03-25T10:08:41.109Z,10.00
2019-03-25T10:11:22.120Z,10.00
2019-03-25T10:14:03.010Z,9.80
2019-03-25T10:16:43.649Z,9.70
2019-03-25T10:19:24.617Z,9.70
2019-03-25T10:22:05.728Z,9.60
2019-03-25T10:24:46.740Z,9.50
2019-03-25T10:27:27.626Z,9.40
2019-03-25T10:30:08.698Z,9.40
2019-03-25T10:32:49.787Z,9.40
2019-03-25T10:35:30.401Z,9.50
2019-03-25T10:38:19.635Z,9.60
2019-03-25T10:40:53.671Z,9.60
2019-03-25T10:43:34.482Z,9.60
2019-03-25T10:46:15.405Z,9.70
2019-03-25T10:48:56.369Z,9.70
2019-03-25T10:51:37.119Z,9.80
2019-03-25T10:54:06.617Z,9.80
2019-03-25T10:56:55.052Z,9.80
2019-03-25T10:59:24.584Z,9.80
2019-03-25T11:02:12.994Z,9.90
2019-03-25T11:05:01.415Z,9.80
2019-03-25T11:10:23.326Z,9.60
2019-03-25T11:13:04.026Z,9.80
2019-03-25T11:15:44.733Z,10.00
2019-03-25T11:18:25.661Z,10.00
2019-03-25T11:21:06.440Z,9.80
2019-03-25T11:23:47.331Z,9.80
2019-03-25T11:26:28.372Z,9.70
2019-03-25T11:29:08.993Z,9.70
2019-03-25T11:31:49.564Z,9.70
2019-03-25T11:34:30.261Z,9.70
2019-03-25T11:37:11.433Z,9.50
2019-03-25T11:39:52.266Z,9.60
2019-03-25T11:42:32.937Z,9.50
2019-03-25T11:45:13.629Z,9.40
2019-03-25T11:47:54.373Z,9.30
2019-03-25T11:50:35.280Z,9.30
2019-03-25T11:53:16.040Z,9.20
2019-03-25T11:55:57.286Z,9.10
2019-03-25T11:58:38.171Z,9.00
2019-03-25T12:01:19.028Z,9.10
2019-03-25T12:03:59.699Z,9.10
2019-03-25T12:06:40.532Z,9.00
2019-03-25T12:09:21.561Z,9.00
2019-03-25T12:12:02.374Z,8.90
2019-03-25T12:14:42.941Z,8.90
2019-03-25T12:17:23.914Z,9.00
2019-03-25T12:20:04.690Z,9.00
2019-03-25T12:22:45.468Z,9.00
2019-03-25T12:25:26.189Z,9.10
2019-03-25T12:28:06.776Z,9.20
2019-03-25T12:30:47.446Z,9.30
2019-03-25T12:33:28.765Z,9.30
2019-03-25T12:36:09.545Z,9.40
2019-03-25T12:38:50.918Z,9.50
2019-03-25T12:41:32.044Z,9.40
2019-03-25T12:44:12.635Z,9.30
2019-03-25T12:46:53.396Z,9.20
2019-03-25T12:49:34.355Z,9.20
2019-03-25T12:52:15.150Z,9.20
2019-03-25T12:54:55.968Z,9.20
2019-03-25T12:57:36.584Z,9.10
2019-03-25T13:00:17.329Z,9.00
2019-03-25T13:02:57.913Z,8.90
2019-03-25T13:05:38.707Z,9.00
2019-03-25T13:08:19.806Z,9.00
2019-03-25T13:11:00.840Z,8.90
2019-03-25T13:13:41.532Z,8.80
2019-03-25T13:16:22.264Z,8.60
2019-03-25T13:19:04.182Z,8.50
2019-03-25T13:21:45.334Z,8.30
2019-03-25T13:24:26.443Z,8.20
2019-03-25T13:27:07.048Z,8.10
2019-03-25T13:29:52.424Z,8.10
2019-03-25T13:32:30.632Z,8.00
2019-03-25T13:35:11.216Z,8.10
2019-03-25T13:37:52.398Z,8.00
2019-03-25T13:40:33.197Z,8.00
2019-03-25T13:43:14.057Z,8.00
2019-03-25T13:46:04.998Z,8.00
2019-03-25T13:48:37.780Z,7.90
2019-03-25T13:51:18.149Z,7.90
2019-03-25T13:53:58.766Z,7.80
2019-03-25T13:56:40.081Z,7.70
2019-03-25T13:59:09.591Z,7.70
2019-03-25T14:01:58.007Z,7.70
2019-03-25T14:04:39.303Z,7.60
2019-03-25T14:07:19.815Z,7.70
2019-03-25T14:10:00.840Z,7.60
2019-03-25T14:12:41.658Z,7.70
2019-03-25T14:15:22.570Z,7.60
2019-03-25T14:18:03.316Z,7.50
2019-03-25T14:20:44.098Z,7.40
2019-03-25T14:23:24.795Z,7.30
2019-03-25T14:26:05.908Z,7.20
2019-03-25T14:28:46.552Z,7.20
2019-03-25T14:31:27.546Z,7.00
2019-03-25T14:34:08.325Z,6.90
2019-03-25T14:36:49.285Z,6.90
2019-03-25T14:39:30.135Z,6.80
2019-03-25T14:42:11.257Z,6.70
2019-03-25T14:44:52.022Z,6.70
2019-03-25T14:47:32.909Z,6.60
2019-03-25T14:50:13.810Z,6.50
2019-03-25T14:52:54.857Z,6.50
2019-03-25T14:55:35.649Z,6.40
2019-03-25T14:58:16.493Z,6.30
2019-03-25T15:00:57.324Z,6.20
2019-03-25T15:03:38.579Z,6.10
2019-03-25T15:06:19.718Z,6.00
2019-03-25T15:09:00.575Z,5.90
2019-03-25T15:11:41.239Z,5.70
2019-03-25T15:14:22.184Z,5.70
2019-03-25T15:17:03.005Z,5.60
2019-03-25T15:19:43.880Z,5.50
2019-03-25T15:22:24.756Z,5.50
2019-03-25T15:25:05.639Z,5.60
2019-03-25T15:27:46.408Z,5.70
2019-03-25T15:30:35.501Z,5.70
2019-03-25T15:33:09.942Z,5.70
2019-03-25T15:35:51.030Z,5.80
2019-03-25T15:38:31.838Z,5.90
2019-03-25T15:41:12.785Z,5.90
2019-03-25T15:43:53.256Z,6.00
2019-03-25T15:46:34.179Z,6.00
2019-03-25T15:49:15.285Z,6.10
2019-03-25T15:51:56.360Z,6.10
2019-03-25T15:54:25.940Z,6.10
2019-03-25T15:57:14.386Z,6.10
2019-03-25T16:00:02.807Z,6.20
2019-03-25T16:02:43.913Z,6.20
2019-03-25T16:05:24.674Z,6.10
2019-03-25T16:08:05.759Z,6.00
2019-03-25T16:10:46.394Z,6.00
2019-03-25T16:13:27.174Z,5.90
2019-03-25T16:16:08.433Z,5.90
2019-03-25T16:18:49.036Z,5.90
2019-03-25T16:21:29.792Z,5.90
2019-03-25T16:24:10.656Z,5.90
2019-03-25T16:26:51.321Z,5.90
2019-03-25T16:29:32.108Z,5.80
2019-03-25T16:32:13.040Z,5.80
2019-03-25T16:34:53.689Z,5.70
2019-03-25T16:37:34.418Z,5.60
2019-03-25T16:40:15.332Z,5.60
2019-03-25T16:42:55.882Z,5.60
2019-03-25T16:45:36.560Z,5.60
2019-03-25T16:48:17.904Z,5.60
2019-03-25T16:50:47.417Z,5.60
2019-03-25T16:53:35.855Z,5.60
2019-03-25T16:56:17.061Z,5.60
2019-03-25T16:58:46.572Z,5.60
2019-03-25T17:01:34.977Z,5.60
2019-03-25T17:04:23.390Z,5.60
2019-03-25T17:07:11.824Z,5.60
2019-03-25T17:09:52.761Z,5.60
2019-03-25T17:12:33.522Z,5.60
2019-03-25T17:15:14.263Z,5.50
2019-03-25T17:17:55.312Z,5.50
2019-03-25T17:20:24.880Z,5.50
2019-03-25T17:23:13.238Z,5.50
2019-03-25T17:25:54.323Z,5.50
2019-03-25T17:28:35.030Z,5.50
2019-03-25T17:31:20.820Z,5.40
2019-03-25T17:33:58.720Z,5.40
2019-03-25T17:36:39.532Z,5.50
2019-03-25T17:39:20.234Z,5.50
2019-03-25T17:42:01.122Z,5.50
2019-03-25T17:44:42.208Z,5.50
2019-03-25T17:47:22.840Z,5.50
2019-03-25T17:50:03.962Z,5.60
2019-03-25T17:52:33.373Z,5.70
2019-03-25T17:55:21.776Z,5.80
2019-03-25T17:58:10.107Z,5.90
2019-03-25T18:00:50.596Z,6.00
2019-03-25T18:03:31.440Z,6.00
2019-03-25T18:06:12.202Z,5.90
2019-03-25T18:08:52.890Z,5.80
2019-03-25T18:11:34.898Z,5.70
2019-03-25T18:14:04.473Z,5.60
2019-03-25T18:16:52.920Z,5.60
2019-03-25T18:19:41.356Z,5.50
2019-03-25T18:22:22.683Z,5.50
2019-03-25T18:25:03.568Z,5.50
2019-03-25T18:27:44.359Z,5.40
2019-03-25T18:30:25.260Z,5.40
2019-03-25T18:33:06.073Z,5.40
2019-03-25T18:38:26.451Z,5.40
2019-03-25T18:41:07.179Z,5.40
2019-03-25T18:43:48.122Z,5.30
2019-03-25T18:46:28.761Z,5.30
2019-03-25T18:49:09.696Z,5.30
2019-03-25T18:51:50.684Z,5.30
2019-03-25T18:54:20.300Z,5.20
2019-03-25T18:57:08.733Z,5.10
2019-03-25T18:59:38.433Z,5.10
2019-03-25T19:02:26.913Z,5.00
2019-03-25T19:05:07.745Z,5.00
2019-03-25T19:07:48.737Z,5.00
2019-03-25T19:10:29.655Z,4.90
2019-03-25T19:13:10.209Z,4.90
2019-03-25T19:15:51.135Z,4.90
2019-03-25T19:18:31.885Z,4.90
2019-03-25T19:21:12.848Z,4.90
2019-03-25T19:23:53.887Z,4.80
2019-03-25T19:26:34.769Z,4.80
2019-03-25T19:29:15.751Z,4.90
2019-03-25T19:32:06.198Z,5.10
2019-03-25T19:34:39.421Z,5.10
2019-03-25T19:37:20.453Z,5.20
2019-03-25T19:40:01.378Z,5.20
2019-03-25T19:42:42.672Z,5.30
2019-03-25T19:48:40.356Z,5.50
2019-03-25T19:51:20.974Z,5.60
2019-03-25T19:54:02.361Z,5.60
2019-03-25T19:56:43.187Z,5.70
2019-03-25T19:59:23.893Z,5.70
2019-03-25T20:02:04.773Z,5.70
2019-03-25T20:04:45.726Z,5.70
2019-03-25T20:07:15.301Z,5.60
2019-03-25T20:10:03.972Z,5.60
2019-03-25T20:12:52.339Z,5.50
2019-03-25T20:15:45.375Z,5.60
2019-03-25T20:18:16.440Z,5.60
2019-03-25T20:20:57.144Z,5.50
2019-03-25T20:23:37.813Z,5.50
2019-03-25T20:26:18.429Z,5.50
2019-03-25T20:28:59.404Z,5.50
2019-03-25T20:31:40.270Z,5.50
2019-03-25T20:34:21.178Z,5.50
2019-03-25T20:37:02.052Z,5.50
2019-03-25T20:39:42.765Z,5.50
2019-03-25T20:42:23.545Z,5.50
2019-03-25T20:45:04.720Z,5.60
2019-03-25T20:47:45.472Z,5.60
2019-03-25T20:50:26.156Z,5.60
2019-03-25T20:53:06.904Z,5.60
2019-03-25T20:55:47.776Z,5.60
2019-03-25T20:58:29.876Z,5.70
2019-03-25T21:01:10.615Z,5.70
2019-03-25T21:03:51.588Z,5.60
2019-03-25T21:06:32.428Z,5.60
2019-03-25T21:09:13.216Z,5.60
2019-03-25T21:11:54.032Z,5.70
2019-03-25T21:14:34.858Z,5.70
2019-03-25T21:17:15.590Z,5.70
2019-03-25T21:19:56.536Z,5.70
2019-03-25T21:22:37.195Z,5.70
2019-03-25T21:25:18.063Z,5.70
2019-03-25T21:27:58.614Z,5.80
2019-03-25T21:30:47.786Z,5.80
2019-03-25T21:33:22.428Z,5.70
2019-03-25T21:36:03.221Z,5.70
2019-03-25T21:38:44.027Z,5.70
2019-03-25T21:41:25.096Z,5.70
2019-03-25T21:44:06.199Z,5.60
2019-03-25T21:46:46.676Z,5.50
2019-03-25T21:49:27.356Z,5.40
2019-03-25T21:52:08.169Z,5.20
2019-03-25T21:54:48.969Z,5.00
2019-03-25T21:57:29.630Z,4.80
2019-03-25T22:00:10.658Z,4.60
2019-03-25T22:02:40.142Z,4.40
2019-03-25T22:05:28.540Z,4.20
2019-03-25T22:08:09.138Z,4.00
2019-03-25T22:10:49.928Z,3.80
2019-03-25T22:13:30.843Z,3.60
2019-03-25T22:16:11.634Z,3.50
2019-03-25T22:18:52.281Z,3.50
2019-03-25T22:21:33.221Z,3.40
2019-03-25T22:24:14.113Z,3.20
2019-03-25T22:26:54.901Z,3.20
2019-03-25T22:29:35.608Z,3.10
2019-03-25T22:32:16.498Z,3.10
2019-03-25T22:34:57.413Z,3.10
2019-03-25T22:37:38.348Z,3.00
2019-03-25T22:40:19.365Z,3.00
2019-03-25T22:42:59.970Z,3.00
2019-03-25T22:45:40.815Z,3.00
2019-03-25T22:48:21.615Z,3.00
2019-03-25T22:51:02.148Z,3.00
2019-03-25T22:53:43.217Z,3.10
2019-03-25T22:56:24.166Z,3.10
2019-03-25T22:59:05.101Z,3.20
2019-03-25T23:01:46.010Z,3.20
2019-03-25T23:04:26.377Z,3.20
2019-03-25T23:07:07.202Z,3.20
2019-03-25T23:09:47.960Z,3.30
2019-03-25T23:12:28.649Z,3.40
2019-03-25T23:15:09.200Z,3.40
2019-03-25T23:17:49.816Z,3.30
2019-03-25T23:20:30.461Z,3.30
2019-03-25T23:23:11.196Z,3.30
2019-03-25T23:25:51.950Z,3.30
2019-03-25T23:28:32.972Z,3.30
2019-03-25T23:31:13.533Z,3.30
2019-03-25T23:33:54.616Z,3.30
2019-03-25T23:36:35.559Z,3.40
2019-03-25T23:39:16.224Z,3.40
2019-03-25T23:41:57.542Z,3.40
2019-03-25T23:44:38.342Z,3.30
2019-03-25T23:47:19.252Z,3.30
2019-03-25T23:49:59.920Z,3.40
2019-03-25T23:52:40.862Z,3.40
2019-03-25T23:55:21.556Z,3.50
2019-03-25T23:58:02.425Z,3.50
